createdAt,value
2018-11-11T00:00:06.321Z,8.40
2018-11-11T00:02:34.942Z,8.40
2018-11-11T00:05:03.523Z,8.30
2018-11-11T00:07:32.077Z,8.40
2018-11-11T00:10:00.670Z,8.20
2018-11-11T00:12:29.208Z,8.50
2018-11-11T00:14:57.732Z,8.80
2018-11-11T00:17:26.259Z,8.50
2018-11-11T00:19:54.766Z,8.30
2018-11-11T00:22:23.298Z,8.70
2018-11-11T00:24:51.836Z,8.20
2018-11-11T00:27:20.364Z,8.20
2018-11-11T00:29:48.926Z,8.00
2018-11-11T00:32:17.501Z,8.20
2018-11-11T00:34:46.025Z,8.10
2018-11-11T00:37:14.570Z,7.90
2018-11-11T00:39:43.122Z,8.10
2018-11-11T00:42:11.660Z,8.10
2018-11-11T00:44:40.196Z,8.10
2018-11-11T00:47:08.700Z,8.10
2018-11-11T00:49:37.240Z,7.60
2018-11-11T00:52:06.440Z,8.00
2018-11-11T00:54:34.936Z,7.90
2018-11-11T00:57:03.527Z,7.50
2018-11-11T00:59:32.061Z,7.80
2018-11-11T01:02:00.652Z,8.00
2018-11-11T01:04:29.285Z,8.00
2018-11-11T01:06:57.742Z,8.00
2018-11-11T01:09:26.180Z,8.10
2018-11-11T01:11:54.753Z,8.10
2018-11-11T01:14:23.305Z,8.20
2018-11-11T01:19:20.055Z,8.10
2018-11-11T01:21:48.764Z,8.20
2018-11-11T01:24:17.241Z,8.10
2018-11-11T01:26:45.757Z,8.50
2018-11-11T01:29:14.267Z,8.20
2018-11-11T01:31:42.777Z,8.30
2018-11-11T01:34:11.324Z,8.20
2018-11-11T01:36:39.862Z,8.10
2018-11-11T01:39:08.948Z,8.00
2018-11-11T01:41:37.537Z,8.00
2018-11-11T01:44:07.089Z,8.10
2018-11-11T01:49:03.806Z,8.20
2018-11-11T01:51:32.341Z,8.10
2018-11-11T01:54:00.987Z,8.20
2018-11-11T01:56:29.455Z,7.90
2018-11-11T01:58:57.967Z,8.00
2018-11-11T02:01:26.503Z,7.90
2018-11-11T02:03:55.045Z,8.20
2018-11-11T02:06:23.539Z,8.00
2018-11-11T02:08:52.044Z,8.00
2018-11-11T02:11:20.553Z,8.00
2018-11-11T02:13:49.060Z,8.00
2018-11-11T02:16:17.604Z,8.00
2018-11-11T02:18:46.113Z,8.00
2018-11-11T02:21:14.739Z,7.90
2018-11-11T02:23:43.175Z,7.90
2018-11-11T02:26:11.675Z,8.00
2018-11-11T02:28:40.189Z,7.90
2018-11-11T02:31:08.702Z,7.90
2018-11-11T02:33:37.244Z,8.00
2018-11-11T02:36:05.736Z,7.90
2018-11-11T02:38:34.218Z,8.00
2018-11-11T02:41:02.676Z,7.90
2018-11-11T02:43:31.170Z,7.80
2018-11-11T02:45:59.658Z,7.90
2018-11-11T02:48:28.147Z,7.80
2018-11-11T02:50:56.633Z,8.00
2018-11-11T02:53:25.148Z,8.00
2018-11-11T02:55:53.652Z,8.20
2018-11-11T02:58:22.173Z,8.10
2018-11-11T03:00:50.684Z,8.10
2018-11-11T03:03:19.182Z,8.30
2018-11-11T03:05:47.671Z,8.20
2018-11-11T03:08:16.150Z,8.30
2018-11-11T03:10:44.637Z,8.20
2018-11-11T03:13:13.138Z,8.30
2018-11-11T03:15:41.940Z,8.20
2018-11-11T03:18:10.459Z,8.10
2018-11-11T03:20:38.986Z,8.10
2018-11-11T03:23:07.480Z,8.00
2018-11-11T03:25:36.020Z,8.10
2018-11-11T03:28:04.552Z,8.10
2018-11-11T03:30:33.094Z,8.10
2018-11-11T03:33:01.630Z,8.20
2018-11-11T03:35:30.155Z,8.20
2018-11-11T03:37:58.705Z,8.20
2018-11-11T03:40:27.246Z,8.20
2018-11-11T03:42:55.797Z,8.20
2018-11-11T03:45:24.342Z,8.10
2018-11-11T03:47:53.090Z,8.10
2018-11-11T03:50:21.584Z,8.10
2018-11-11T03:52:50.120Z,8.10
2018-11-11T03:55:18.853Z,8.10
2018-11-11T03:57:47.400Z,8.30
2018-11-11T04:02:51.078Z,8.30
2018-11-11T04:05:19.564Z,8.10
2018-11-11T04:07:48.048Z,8.10
2018-11-11T04:10:17.787Z,8.30
2018-11-11T04:12:46.744Z,8.20
2018-11-11T04:15:16.498Z,8.10
2018-11-11T04:17:45.268Z,8.10
2018-11-11T04:20:15.194Z,8.10
2018-11-11T04:22:43.700Z,8.10
2018-11-11T04:25:12.551Z,8.10
2018-11-11T04:27:41.033Z,8.20
2018-11-11T04:30:10.439Z,8.30
2018-11-11T04:32:38.993Z,8.30
2018-11-11T04:35:07.959Z,8.40
2018-11-11T04:37:36.467Z,8.20
2018-11-11T04:40:06.343Z,8.20
2018-11-11T04:42:35.530Z,8.30
2018-11-11T04:45:04.133Z,8.30
2018-11-11T04:47:32.670Z,8.40
2018-11-11T04:50:01.210Z,8.30
2018-11-11T04:52:30.633Z,8.40
2018-11-11T04:54:59.394Z,8.60
2018-11-11T04:57:28.047Z,8.40
2018-11-11T04:59:57.231Z,8.20
2018-11-11T05:02:25.991Z,8.30
2018-11-11T05:04:54.587Z,8.40
2018-11-11T05:07:23.327Z,8.40
2018-11-11T05:09:51.960Z,8.30
2018-11-11T05:12:20.523Z,8.30
2018-11-11T05:14:49.163Z,8.30
2018-11-11T05:17:17.806Z,8.30
2018-11-11T05:19:46.385Z,8.20
2018-11-11T05:24:43.223Z,8.10
2018-11-11T05:27:11.758Z,8.10
2018-11-11T05:29:40.351Z,8.10
2018-11-11T05:32:08.885Z,8.10
2018-11-11T05:34:37.418Z,8.10
2018-11-11T05:37:06.309Z,8.10
2018-11-11T05:39:34.843Z,8.00
2018-11-11T05:42:03.387Z,8.10
2018-11-11T05:44:31.856Z,8.00
2018-11-11T05:47:00.375Z,8.00
2018-11-11T05:49:28.899Z,7.80
2018-11-11T05:51:57.499Z,7.90
2018-11-11T05:54:26.136Z,7.90
2018-11-11T05:56:54.889Z,8.00
2018-11-11T05:59:23.814Z,8.10
2018-11-11T06:01:53.207Z,8.10
2018-11-11T06:04:21.845Z,7.90
2018-11-11T06:06:50.357Z,8.00
2018-11-11T06:09:18.937Z,8.10
2018-11-11T06:11:47.515Z,8.10
2018-11-11T06:14:16.038Z,7.80
2018-11-11T06:16:44.640Z,8.00
2018-11-11T06:19:13.279Z,8.00
2018-11-11T06:21:41.842Z,7.90
2018-11-11T06:24:10.366Z,7.80
2018-11-11T06:26:38.881Z,7.80
2018-11-11T06:29:07.688Z,7.80
2018-11-11T06:31:36.294Z,7.90
2018-11-11T06:34:04.884Z,7.80
2018-11-11T06:36:34.307Z,7.90
2018-11-11T06:39:02.929Z,7.70
2018-11-11T06:41:31.530Z,7.80
2018-11-11T06:44:00.884Z,7.50
2018-11-11T06:46:30.483Z,7.60
2018-11-11T06:48:59.136Z,7.90
2018-11-11T06:51:27.838Z,7.90
2018-11-11T06:53:56.530Z,7.70
2018-11-11T06:58:53.196Z,8.00
2018-11-11T07:01:21.706Z,8.00
2018-11-11T07:04:01.365Z,7.90
2018-11-11T07:06:30.316Z,8.10
2018-11-11T07:08:58.944Z,8.00
2018-11-11T07:11:27.494Z,8.00
2018-11-11T07:13:56.114Z,8.10
2018-11-11T07:16:24.628Z,8.10
2018-11-11T07:18:53.192Z,8.10
2018-11-11T07:21:21.786Z,8.20
2018-11-11T07:23:50.324Z,8.00
2018-11-11T07:26:18.884Z,8.00
2018-11-11T07:28:47.404Z,8.10
2018-11-11T07:31:15.942Z,8.00
2018-11-11T07:33:44.506Z,8.10
2018-11-11T07:36:13.054Z,8.10
2018-11-11T07:38:41.574Z,8.20
2018-11-11T07:41:10.083Z,8.10
2018-11-11T07:43:39.040Z,8.10
2018-11-11T07:46:07.694Z,8.10
2018-11-11T07:48:36.218Z,8.10
2018-11-11T07:51:04.807Z,8.20
2018-11-11T07:53:33.300Z,8.20
2018-11-11T07:56:01.778Z,8.10
2018-11-11T07:58:30.341Z,8.10
2018-11-11T08:00:58.846Z,8.00
2018-11-11T08:03:27.442Z,8.10
2018-11-11T08:05:55.942Z,8.10
2018-11-11T08:08:24.499Z,8.20
2018-11-11T08:11:04.365Z,8.10
2018-11-11T08:13:32.903Z,8.30
2018-11-11T08:16:01.554Z,8.20
2018-11-11T08:18:30.530Z,8.20
2018-11-11T08:21:00.189Z,8.50
2018-11-11T08:23:29.192Z,8.20
2018-11-11T08:25:57.750Z,8.10
2018-11-11T08:28:26.463Z,8.20
2018-11-11T08:30:55.035Z,8.50
2018-11-11T08:33:23.664Z,8.40
2018-11-11T08:35:52.245Z,8.60
2018-11-11T08:38:20.839Z,8.50
2018-11-11T08:40:49.412Z,8.40
2018-11-11T08:43:21.099Z,8.50
2018-11-11T08:45:49.695Z,8.50
2018-11-11T08:48:18.315Z,8.50
2018-11-11T08:50:46.821Z,8.40
2018-11-11T08:53:15.464Z,8.40
2018-11-11T08:55:44.091Z,8.50
2018-11-11T08:58:12.834Z,8.80
2018-11-11T09:00:41.343Z,8.70
2018-11-11T09:03:11.156Z,8.80
2018-11-11T09:05:40.218Z,8.80
2018-11-11T09:08:08.842Z,8.80
2018-11-11T09:10:37.409Z,8.80
2018-11-11T09:13:06.466Z,8.90
2018-11-11T09:15:35.087Z,8.80
2018-11-11T09:18:03.770Z,8.80
2018-11-11T09:20:32.323Z,8.90
2018-11-11T09:23:00.911Z,9.00
2018-11-11T09:25:29.575Z,9.10
2018-11-11T09:27:58.137Z,9.00
2018-11-11T09:30:26.822Z,9.10
2018-11-11T09:32:55.339Z,9.20
2018-11-11T09:35:23.960Z,9.20
2018-11-11T09:37:52.651Z,8.90
2018-11-11T09:40:21.222Z,9.00
2018-11-11T09:42:49.861Z,8.80
2018-11-11T09:45:18.421Z,8.80
2018-11-11T09:47:47.110Z,8.80
2018-11-11T09:50:17.467Z,8.90
2018-11-11T09:52:46.151Z,9.10
2018-11-11T09:55:15.181Z,9.10
2018-11-11T09:57:43.766Z,9.00
2018-11-11T10:00:16.786Z,9.10
2018-11-11T10:02:55.464Z,9.20
2018-11-11T10:05:28.277Z,9.20
2018-11-11T10:08:04.495Z,9.40
2018-11-11T10:10:40.586Z,9.60
2018-11-11T10:13:13.987Z,10.40
2018-11-11T10:15:47.463Z,10.10
2018-11-11T10:20:26.040Z,10.20
2018-11-11T10:25:05.616Z,10.10
2018-11-11T10:27:42.152Z,9.90
2018-11-11T10:30:15.268Z,10.00
2018-11-11T10:33:33.122Z,10.00
2018-11-11T10:36:24.573Z,10.20
2018-11-11T10:39:55.695Z,10.20
2018-11-11T10:42:29.580Z,10.00
2018-11-11T10:45:02.875Z,10.00
2018-11-11T10:47:50.346Z,10.10
2018-11-11T10:50:22.416Z,10.10
2018-11-11T10:52:51.012Z,10.10
2018-11-11T10:55:19.807Z,9.90
2018-11-11T10:57:48.428Z,9.90
2018-11-11T11:00:23.222Z,10.00
2018-11-11T11:02:54.705Z,9.70
2018-11-11T11:05:23.240Z,9.50
2018-11-11T11:07:52.604Z,9.50
2018-11-11T11:10:21.184Z,9.80
2018-11-11T11:12:50.834Z,10.00
2018-11-11T11:15:19.458Z,10.20
2018-11-11T11:17:48.064Z,10.40
2018-11-11T11:20:16.648Z,10.90
2018-11-11T11:22:45.231Z,10.80
2018-11-11T11:25:14.455Z,10.70
2018-11-11T11:27:43.594Z,10.90
2018-11-11T11:30:13.469Z,11.00
2018-11-11T11:32:42.428Z,10.80
2018-11-11T11:35:11.470Z,10.80
2018-11-11T11:37:40.304Z,10.90
2018-11-11T11:40:09.911Z,11.10
2018-11-11T11:42:38.764Z,11.00
2018-11-11T11:45:08.677Z,10.90
2018-11-11T11:47:37.440Z,10.60
2018-11-11T11:50:07.438Z,10.60
2018-11-11T11:52:35.960Z,11.00
2018-11-11T11:55:05.292Z,11.50
2018-11-11T11:57:33.903Z,12.20
2018-11-11T12:00:03.245Z,12.10
2018-11-11T12:02:31.865Z,12.50
2018-11-11T12:05:00.651Z,13.20
2018-11-11T12:07:29.543Z,13.50
2018-11-11T12:09:59.002Z,13.00
2018-11-11T12:12:27.639Z,13.10
2018-11-11T12:14:56.405Z,13.50
2018-11-11T12:17:25.281Z,13.80
2018-11-11T12:19:53.819Z,13.90
2018-11-11T12:22:22.412Z,14.20
2018-11-11T12:24:51.049Z,14.10
2018-11-11T12:27:19.672Z,13.00
2018-11-11T12:29:48.399Z,13.10
2018-11-11T12:32:18.253Z,13.20
2018-11-11T12:34:46.827Z,13.10
2018-11-11T12:37:18.208Z,12.70
2018-11-11T12:39:48.378Z,12.40
2018-11-11T12:42:16.807Z,12.40
2018-11-11T12:44:45.514Z,12.60
2018-11-11T12:47:14.345Z,12.40
2018-11-11T12:49:43.511Z,12.50
2018-11-11T12:52:12.165Z,13.00
2018-11-11T12:54:40.744Z,13.10
2018-11-11T12:57:09.733Z,13.30
2018-11-11T12:59:38.401Z,13.60
2018-11-11T13:02:06.665Z,13.90
2018-11-11T13:04:35.251Z,13.90
2018-11-11T13:07:04.677Z,13.90
2018-11-11T13:09:33.266Z,13.60
2018-11-11T13:12:01.935Z,13.60
2018-11-11T13:14:31.031Z,13.60
2018-11-11T13:16:59.734Z,13.90
2018-11-11T13:19:28.685Z,13.80
2018-11-11T13:21:57.493Z,14.10
2018-11-11T13:24:26.086Z,14.10
2018-11-11T13:26:54.663Z,14.20
2018-11-11T13:29:23.391Z,13.90
2018-11-11T13:31:52.166Z,13.70
2018-11-11T13:34:21.657Z,13.70
2018-11-11T13:36:50.657Z,13.50
2018-11-11T13:39:19.641Z,13.60
2018-11-11T13:41:48.374Z,13.50
2018-11-11T13:44:17.438Z,13.30
2018-11-11T13:46:46.116Z,13.10
2018-11-11T13:49:15.137Z,13.10
2018-11-11T13:51:43.830Z,13.10
2018-11-11T13:54:13.050Z,13.00
2018-11-11T13:56:41.754Z,13.00
2018-11-11T13:59:10.451Z,12.80
2018-11-11T14:01:40.210Z,12.80
2018-11-11T14:04:08.874Z,13.00
2018-11-11T14:06:37.514Z,13.00
2018-11-11T14:09:11.967Z,13.00
2018-11-11T14:11:40.677Z,13.00
2018-11-11T14:14:09.530Z,12.80
2018-11-11T14:16:39.253Z,12.80
2018-11-11T14:19:08.572Z,12.60
2018-11-11T14:21:36.908Z,12.60
2018-11-11T14:24:06.764Z,12.50
2018-11-11T14:26:35.617Z,12.30
2018-11-11T14:29:04.155Z,12.20
2018-11-11T14:31:33.235Z,12.20
2018-11-11T14:34:03.054Z,12.10
2018-11-11T14:36:32.222Z,12.00
2018-11-11T14:39:00.878Z,12.00
2018-11-11T14:41:30.458Z,11.90
2018-11-11T14:43:59.147Z,11.90
2018-11-11T14:46:29.035Z,11.80
2018-11-11T14:48:57.838Z,11.80
2018-11-11T14:51:26.544Z,11.80
2018-11-11T14:53:55.249Z,11.70
2018-11-11T14:56:24.034Z,11.70
2018-11-11T14:58:52.946Z,11.70
2018-11-11T15:01:21.498Z,11.80
2018-11-11T15:03:50.436Z,11.10
2018-11-11T15:06:20.140Z,11.70
2018-11-11T15:08:49.461Z,11.60
2018-11-11T15:11:18.190Z,11.60
2018-11-11T15:13:47.940Z,11.30
2018-11-11T15:16:19.103Z,11.10
2018-11-11T15:18:47.951Z,10.90
2018-11-11T15:21:16.655Z,10.90
2018-11-11T15:23:46.228Z,10.70
2018-11-11T15:26:15.013Z,10.50
2018-11-11T15:28:44.515Z,10.30
2018-11-11T15:31:13.850Z,10.50
2018-11-11T15:33:43.012Z,10.20
2018-11-11T15:36:11.912Z,10.20
2018-11-11T15:41:09.924Z,9.90
2018-11-11T15:46:07.367Z,9.90
2018-11-11T15:48:37.024Z,9.70
2018-11-11T15:51:05.942Z,9.80
2018-11-11T15:53:35.425Z,9.90
2018-11-11T15:56:04.173Z,9.70
2018-11-11T15:58:32.999Z,9.40
2018-11-11T16:01:01.721Z,9.10
2018-11-11T16:03:31.059Z,9.10
2018-11-11T16:06:00.779Z,9.10
2018-11-11T16:08:29.854Z,8.90
2018-11-11T16:10:58.898Z,9.20
2018-11-11T16:13:27.696Z,9.10
2018-11-11T16:15:56.518Z,8.90
2018-11-11T16:18:25.272Z,8.60
2018-11-11T16:20:54.748Z,8.90
2018-11-11T16:25:51.943Z,8.80
2018-11-11T16:28:22.470Z,8.90
2018-11-11T16:30:51.568Z,9.00
2018-11-11T16:33:21.000Z,8.90
2018-11-11T16:35:51.286Z,8.70
2018-11-11T16:38:21.498Z,8.80
2018-11-11T16:40:50.814Z,8.40
2018-11-11T16:43:19.435Z,8.60
2018-11-11T16:45:48.883Z,8.40
2018-11-11T16:50:50.593Z,8.30
2018-11-11T16:53:21.917Z,8.60
2018-11-11T16:58:18.961Z,8.40
2018-11-11T17:00:47.993Z,7.80
2018-11-11T17:03:16.971Z,7.80
2018-11-11T17:05:45.989Z,8.20
2018-11-11T17:08:14.735Z,8.10
2018-11-11T17:10:44.078Z,8.40
2018-11-11T17:13:14.476Z,8.20
2018-11-11T17:15:46.214Z,8.20
2018-11-11T17:18:15.780Z,8.50
2018-11-11T17:20:44.653Z,8.10
2018-11-11T17:23:13.614Z,8.20
2018-11-11T17:25:44.032Z,8.10
2018-11-11T17:28:13.232Z,8.00
2018-11-11T17:30:42.009Z,8.20
2018-11-11T17:33:10.746Z,7.90
2018-11-11T17:35:39.459Z,8.40
2018-11-11T17:38:08.124Z,7.90
2018-11-11T17:40:37.320Z,7.90
2018-11-11T17:43:06.401Z,7.70
2018-11-11T17:45:35.300Z,7.90
2018-11-11T17:48:04.927Z,7.70
2018-11-11T17:50:34.875Z,7.80
2018-11-11T17:53:05.974Z,7.60
2018-11-11T17:55:34.859Z,7.60
2018-11-11T17:58:05.731Z,7.70
2018-11-11T18:00:34.744Z,7.80
2018-11-11T18:03:05.569Z,7.70
2018-11-11T18:05:34.719Z,7.90
2018-11-11T18:08:04.972Z,7.70
2018-11-11T18:10:34.996Z,7.60
2018-11-11T18:13:08.468Z,7.40
2018-11-11T18:15:45.141Z,7.50
2018-11-11T18:18:14.570Z,7.30
2018-11-11T18:20:44.358Z,7.30
2018-11-11T18:23:13.144Z,7.90
2018-11-11T18:25:43.362Z,7.60
2018-11-11T18:30:41.271Z,7.20
2018-11-11T18:33:11.647Z,7.30
2018-11-11T18:35:40.770Z,7.10
2018-11-11T18:40:40.382Z,7.10
2018-11-11T18:43:09.425Z,7.00
2018-11-11T18:45:41.694Z,7.30
2018-11-11T18:48:11.291Z,6.60
2018-11-11T18:50:42.025Z,7.00
2018-11-11T18:53:13.767Z,7.00
2018-11-11T18:55:42.957Z,6.70
2018-11-11T18:58:13.769Z,6.70
2018-11-11T19:00:42.587Z,6.70
2018-11-11T19:03:12.719Z,6.70
2018-11-11T19:05:44.065Z,6.50
2018-11-11T19:08:13.905Z,6.90
2018-11-11T19:15:45.381Z,6.10
2018-11-11T19:18:15.595Z,6.00
2018-11-11T19:23:13.651Z,6.10
2018-11-11T19:28:12.323Z,6.00
2018-11-11T19:30:41.254Z,5.70
2018-11-11T19:33:10.372Z,5.50
2018-11-11T19:35:42.488Z,5.70
2018-11-11T19:38:12.697Z,5.70
2018-11-11T19:40:41.943Z,5.50
2018-11-11T19:43:13.755Z,5.70
2018-11-11T19:45:42.666Z,5.90
2018-11-11T19:50:47.363Z,5.70
2018-11-11T19:53:16.186Z,5.90
2018-11-11T19:55:45.530Z,5.60
2018-11-11T19:58:15.331Z,5.60
2018-11-11T20:05:51.310Z,6.30
2018-11-11T20:08:20.293Z,5.80
2018-11-11T20:10:52.777Z,5.40
2018-11-11T20:13:27.842Z,5.30
2018-11-11T20:15:58.333Z,5.40
2018-11-11T20:18:27.981Z,5.40
2018-11-11T20:20:57.026Z,5.40
2018-11-11T20:23:26.026Z,5.30
2018-11-11T20:25:55.655Z,5.40
2018-11-11T20:28:24.728Z,5.50
2018-11-11T20:30:53.586Z,5.30
2018-11-11T20:33:22.670Z,5.50
2018-11-11T20:35:51.795Z,5.40
2018-11-11T20:38:23.136Z,5.30
2018-11-11T20:40:51.771Z,5.20
2018-11-11T20:43:25.579Z,4.80
2018-11-11T20:45:55.074Z,5.10
2018-11-11T20:48:27.338Z,5.10
2018-11-11T20:50:56.150Z,4.90
2018-11-11T20:53:25.146Z,5.10
2018-11-11T20:55:55.037Z,5.10
2018-11-11T20:58:25.098Z,5.00
2018-11-11T21:00:53.784Z,5.10
2018-11-11T21:08:20.752Z,4.80
2018-11-11T21:10:49.444Z,4.30
2018-11-11T21:13:18.856Z,5.30
2018-11-11T21:18:17.433Z,4.80
2018-11-11T21:20:49.421Z,5.00
2018-11-11T21:23:19.258Z,4.80
2018-11-11T21:25:49.215Z,4.80
2018-11-11T21:28:18.068Z,5.00
2018-11-11T21:30:46.890Z,4.80
2018-11-11T21:33:15.999Z,4.70
2018-11-11T21:35:46.226Z,4.80
2018-11-11T21:38:15.670Z,4.90
2018-11-11T21:40:45.952Z,4.70
2018-11-11T21:43:14.794Z,4.80
2018-11-11T21:45:43.877Z,4.70
2018-11-11T21:48:13.544Z,4.40
2018-11-11T21:50:45.266Z,5.20
2018-11-11T21:53:33.057Z,4.80
2018-11-11T21:56:04.016Z,4.40
2018-11-11T21:58:32.729Z,4.60
2018-11-11T22:01:01.957Z,4.50
2018-11-11T22:03:30.568Z,4.30
2018-11-11T22:06:00.045Z,4.30
2018-11-11T22:08:28.724Z,4.50
2018-11-11T22:10:57.398Z,3.80
2018-11-11T22:13:25.988Z,4.50
2018-11-11T22:15:55.855Z,4.40
2018-11-11T22:18:24.850Z,4.50
2018-11-11T22:20:55.982Z,4.70
2018-11-11T22:23:24.568Z,4.30
2018-11-11T22:25:53.292Z,5.20
2018-11-11T22:28:22.992Z,4.70
2018-11-11T22:30:51.667Z,4.80
2018-11-11T22:33:20.240Z,4.90
2018-11-11T22:35:48.774Z,4.80
2018-11-11T22:38:17.359Z,5.10
2018-11-11T22:40:45.922Z,4.60
2018-11-11T22:43:14.467Z,4.60
2018-11-11T22:45:43.092Z,4.70
2018-11-11T22:48:11.612Z,4.50
2018-11-11T22:50:40.237Z,4.50
2018-11-11T22:53:10.687Z,4.40
2018-11-11T22:55:40.106Z,4.80
2018-11-11T23:03:05.819Z,4.90
2018-11-11T23:05:35.937Z,4.50
2018-11-11T23:08:04.712Z,4.80
2018-11-11T23:10:33.379Z,4.20
2018-11-11T23:13:01.915Z,4.70
2018-11-11T23:15:30.471Z,4.70
2018-11-11T23:17:58.949Z,4.70
2018-11-11T23:20:27.527Z,4.50
2018-11-11T23:22:56.078Z,4.80
2018-11-11T23:25:24.651Z,4.90
2018-11-11T23:27:53.174Z,4.70
2018-11-11T23:30:22.901Z,4.80
2018-11-11T23:32:52.037Z,5.30
2018-11-11T23:35:20.575Z,4.70
2018-11-11T23:37:49.093Z,4.90
2018-11-11T23:40:18.802Z,4.80
2018-11-11T23:42:48.079Z,5.00
2018-11-11T23:45:16.651Z,4.70
2018-11-11T23:47:45.205Z,4.70
2018-11-11T23:50:16.003Z,4.50
2018-11-11T23:52:45.100Z,4.50
2018-11-11T23:55:14.815Z,4.50
2018-11-11T23:57:43.367Z,4.50
